createdAt,value
2023-01-19T00:00:34.539Z,-0.14
2023-01-19T00:03:03.799Z,-0.05
2023-01-19T00:05:33.855Z,-0.20
2023-01-19T00:08:14.810Z,-0.10
2023-01-19T00:10:47.648Z,-0.17
2023-01-19T00:13:17.948Z,-0.08
2023-01-19T00:15:47.145Z,0.03
2023-01-19T00:18:16.399Z,0.03
2023-01-19T00:20:47.511Z,0.12
2023-01-19T00:23:17.386Z,0.10
2023-01-19T00:25:51.153Z,-0.01
2023-01-19T00:28:22.414Z,0.04
2023-01-19T00:30:52.843Z,0.05
2023-01-19T00:33:22.061Z,0.00
2023-01-19T00:35:54.972Z,0.08
2023-01-19T00:38:24.209Z,0.07
2023-01-19T00:40:56.010Z,0.14
2023-01-19T00:43:25.396Z,0.09
2023-01-19T00:45:54.599Z,0.19
2023-01-19T00:48:24.110Z,0.13
2023-01-19T00:50:53.341Z,0.14
2023-01-19T00:53:22.600Z,0.18
2023-01-19T00:55:51.797Z,0.10
2023-01-19T00:58:24.239Z,0.18
2023-01-19T01:00:57.531Z,0.16
2023-01-19T01:03:28.671Z,0.14
2023-01-19T01:05:57.924Z,0.14
2023-01-19T01:08:27.188Z,0.28
2023-01-19T01:10:57.236Z,0.30
2023-01-19T01:13:29.540Z,0.17
2023-01-19T01:15:59.447Z,0.22
2023-01-19T01:18:28.776Z,0.23
2023-01-19T01:21:03.416Z,0.19
2023-01-19T01:23:32.671Z,0.22
2023-01-19T01:26:02.245Z,0.31
2023-01-19T01:28:34.064Z,0.27
2023-01-19T01:31:03.272Z,0.18
2023-01-19T01:33:40.543Z,0.17
2023-01-19T01:36:11.257Z,0.15
2023-01-19T01:38:40.485Z,0.09
2023-01-19T01:41:09.908Z,0.23
2023-01-19T01:43:49.707Z,0.20
2023-01-19T01:46:20.099Z,0.17
2023-01-19T01:48:53.148Z,0.23
2023-01-19T01:51:27.431Z,0.19
2023-01-19T01:54:17.757Z,0.15
2023-01-19T01:56:48.076Z,0.17
2023-01-19T01:59:26.123Z,0.16
2023-01-19T02:02:08.140Z,0.18
2023-01-19T02:04:38.629Z,0.24
2023-01-19T02:07:20.426Z,0.22
2023-01-19T02:10:02.193Z,0.21
2023-01-19T02:12:44.345Z,0.30
2023-01-19T02:15:21.094Z,0.28
2023-01-19T02:17:50.992Z,0.25
2023-01-19T02:20:21.387Z,0.15
2023-01-19T02:22:51.694Z,0.19
2023-01-19T02:25:24.083Z,0.28
2023-01-19T02:27:55.422Z,0.27
2023-01-19T02:30:24.766Z,0.16
2023-01-19T02:32:53.989Z,0.15
2023-01-19T02:35:23.695Z,0.22
2023-01-19T02:37:53.831Z,0.29
2023-01-19T02:40:26.404Z,0.24
2023-01-19T02:42:59.220Z,0.26
2023-01-19T02:45:29.519Z,0.31
2023-01-19T02:47:58.791Z,0.19
2023-01-19T02:50:46.159Z,0.15
2023-01-19T02:53:23.533Z,0.19
2023-01-19T02:55:59.219Z,0.24
2023-01-19T02:58:33.867Z,0.28
2023-01-19T03:01:08.674Z,0.14
2023-01-19T03:03:42.283Z,0.15
2023-01-19T03:06:15.729Z,0.21
2023-01-19T03:08:47.737Z,0.16
2023-01-19T03:11:19.618Z,0.32
2023-01-19T03:13:52.102Z,0.27
2023-01-19T03:16:23.525Z,0.21
2023-01-19T03:18:54.747Z,0.22
2023-01-19T03:21:26.230Z,0.35
2023-01-19T03:23:57.460Z,0.39
2023-01-19T03:26:32.675Z,0.39
2023-01-19T03:29:03.469Z,0.52
2023-01-19T03:31:34.301Z,0.41
2023-01-19T03:34:06.721Z,0.37
2023-01-19T03:36:38.729Z,0.43
2023-01-19T03:39:08.683Z,0.44
2023-01-19T03:41:41.999Z,0.55
2023-01-19T03:44:12.145Z,0.67
2023-01-19T03:46:42.000Z,0.67
2023-01-19T03:49:12.070Z,0.75
2023-01-19T03:51:41.709Z,0.85
2023-01-19T03:54:12.719Z,0.94
2023-01-19T03:56:44.952Z,0.91
2023-01-19T03:59:17.403Z,0.89
2023-01-19T04:01:46.715Z,0.89
2023-01-19T04:04:16.129Z,0.78
2023-01-19T04:06:45.675Z,0.73
2023-01-19T04:09:14.914Z,0.77
2023-01-19T04:11:46.750Z,0.86
2023-01-19T04:14:15.940Z,0.88
2023-01-19T04:16:45.209Z,0.91
2023-01-19T04:19:14.488Z,0.97
2023-01-19T04:21:43.706Z,1.04
2023-01-19T04:24:13.265Z,1.05
2023-01-19T04:26:42.547Z,1.06
2023-01-19T04:29:14.413Z,1.06
2023-01-19T04:31:43.630Z,1.07
2023-01-19T04:34:12.940Z,1.10
2023-01-19T04:36:42.130Z,1.20
2023-01-19T04:39:11.784Z,1.15
2023-01-19T04:41:40.973Z,1.19
2023-01-19T04:44:10.183Z,1.22
2023-01-19T04:46:42.019Z,1.25
2023-01-19T04:49:11.259Z,1.28
2023-01-19T04:51:40.530Z,1.28
2023-01-19T04:54:10.291Z,1.29
2023-01-19T04:56:40.897Z,1.29
2023-01-19T04:59:10.176Z,1.32
2023-01-19T05:01:42.064Z,1.36
2023-01-19T05:04:11.296Z,1.35
2023-01-19T05:06:40.504Z,1.42
2023-01-19T05:09:13.164Z,1.39
2023-01-19T05:11:42.417Z,1.44
2023-01-19T05:14:11.678Z,1.42
2023-01-19T05:16:43.446Z,1.40
2023-01-19T05:19:12.658Z,1.40
2023-01-19T05:21:42.155Z,1.40
2023-01-19T05:24:11.640Z,1.40
2023-01-19T05:26:41.010Z,1.38
2023-01-19T05:29:10.636Z,1.34
2023-01-19T05:31:40.029Z,1.33
2023-01-19T05:34:14.527Z,1.30
2023-01-19T05:36:43.734Z,1.30
2023-01-19T05:39:12.977Z,1.30
2023-01-19T05:41:42.342Z,1.29
2023-01-19T05:44:12.371Z,1.27
2023-01-19T05:46:41.659Z,1.34
2023-01-19T05:49:14.532Z,1.37
2023-01-19T05:51:45.479Z,1.39
2023-01-19T05:54:15.392Z,1.41
2023-01-19T05:56:44.825Z,1.40
2023-01-19T05:59:15.322Z,1.41
2023-01-19T06:01:44.558Z,1.39
2023-01-19T06:04:16.371Z,1.38
2023-01-19T06:06:45.566Z,1.40
2023-01-19T06:09:14.801Z,1.40
2023-01-19T06:11:44.024Z,1.36
2023-01-19T06:14:13.636Z,1.36
2023-01-19T06:16:42.939Z,1.40
2023-01-19T06:19:12.438Z,1.41
2023-01-19T06:21:49.557Z,1.44
2023-01-19T06:24:19.054Z,1.47
2023-01-19T06:26:48.339Z,1.50
2023-01-19T06:29:18.404Z,1.48
2023-01-19T06:31:47.836Z,1.44
2023-01-19T06:34:17.046Z,1.39
2023-01-19T06:36:49.057Z,1.34
2023-01-19T06:39:18.284Z,1.36
2023-01-19T06:41:47.571Z,1.41
2023-01-19T06:44:16.952Z,1.39
2023-01-19T06:46:46.395Z,1.36
2023-01-19T06:49:15.676Z,1.42
2023-01-19T06:51:44.901Z,1.40
2023-01-19T06:54:16.759Z,1.43
2023-01-19T06:56:46.088Z,1.46
2023-01-19T06:59:15.361Z,1.50
2023-01-19T07:01:44.767Z,1.55
2023-01-19T07:04:15.257Z,1.57
2023-01-19T07:06:44.528Z,1.57
2023-01-19T07:09:15.630Z,1.59
2023-01-19T07:11:48.621Z,1.62
2023-01-19T07:14:18.150Z,1.62
2023-01-19T07:16:47.540Z,1.67
2023-01-19T07:19:16.827Z,1.70
2023-01-19T07:21:46.051Z,1.67
2023-01-19T07:24:15.245Z,1.73
2023-01-19T07:26:44.511Z,1.75
2023-01-19T07:29:16.290Z,1.75
2023-01-19T07:31:45.734Z,1.76
2023-01-19T07:34:15.032Z,1.80
2023-01-19T07:36:44.312Z,1.82
2023-01-19T07:39:13.477Z,1.79
2023-01-19T07:41:42.694Z,1.81
2023-01-19T07:44:12.028Z,1.90
2023-01-19T07:46:43.922Z,1.87
2023-01-19T07:49:13.483Z,1.90
2023-01-19T07:51:42.997Z,1.88
2023-01-19T07:54:12.249Z,1.90
2023-01-19T07:56:41.550Z,1.91
2023-01-19T07:59:12.235Z,1.91
2023-01-19T08:01:44.678Z,1.96
2023-01-19T08:04:14.018Z,1.96
2023-01-19T08:06:43.377Z,1.98
2023-01-19T08:09:12.595Z,1.98
2023-01-19T08:11:41.875Z,2.00
2023-01-19T08:14:11.171Z,2.01
2023-01-19T08:16:40.464Z,2.06
2023-01-19T08:19:12.440Z,2.01
2023-01-19T08:21:41.670Z,1.98
2023-01-19T08:24:19.605Z,2.06
2023-01-19T08:26:48.893Z,2.04
2023-01-19T08:29:18.172Z,2.05
2023-01-19T08:31:47.458Z,2.05
2023-01-19T08:34:19.370Z,2.03
2023-01-19T08:36:49.280Z,2.06
2023-01-19T08:39:18.528Z,2.09
2023-01-19T08:41:47.767Z,2.08
2023-01-19T08:44:17.060Z,2.12
2023-01-19T08:46:46.692Z,2.14
2023-01-19T08:49:15.968Z,2.09
2023-01-19T08:51:49.162Z,2.10
2023-01-19T08:54:18.839Z,2.12
2023-01-19T08:56:48.077Z,2.18
2023-01-19T08:59:17.582Z,2.13
2023-01-19T09:01:46.979Z,2.16
2023-01-19T09:04:16.299Z,2.21
2023-01-19T09:06:48.365Z,2.18
2023-01-19T09:09:17.624Z,2.05
2023-01-19T09:11:50.305Z,2.16
2023-01-19T09:14:19.531Z,2.16
2023-01-19T09:16:48.865Z,2.17
2023-01-19T09:19:18.337Z,2.09
2023-01-19T09:21:50.897Z,2.05
2023-01-19T09:24:20.124Z,2.03
2023-01-19T09:26:49.417Z,1.81
2023-01-19T09:29:18.703Z,1.95
2023-01-19T09:31:48.564Z,2.09
2023-01-19T09:34:17.965Z,2.02
2023-01-19T09:36:49.796Z,1.84
2023-01-19T09:39:19.061Z,1.94
2023-01-19T09:41:49.896Z,2.05
2023-01-19T09:44:20.927Z,1.95
2023-01-19T09:46:50.194Z,1.85
2023-01-19T09:49:21.552Z,1.88
2023-01-19T09:51:53.878Z,1.99
2023-01-19T09:54:34.215Z,1.96
2023-01-19T09:57:03.512Z,1.75
2023-01-19T09:59:33.734Z,1.82
2023-01-19T10:02:08.896Z,1.72
2023-01-19T10:04:41.659Z,1.83
2023-01-19T10:07:26.298Z,1.81
2023-01-19T10:10:10.319Z,1.66
2023-01-19T10:12:45.962Z,1.63
2023-01-19T10:15:19.841Z,1.71
2023-01-19T10:17:52.832Z,1.53
2023-01-19T10:20:26.547Z,1.62
2023-01-19T10:23:00.491Z,1.50
2023-01-19T10:25:30.428Z,1.52
2023-01-19T10:28:01.152Z,1.52
2023-01-19T10:30:31.747Z,1.67
2023-01-19T10:33:01.202Z,1.66
2023-01-19T10:35:32.356Z,1.66
2023-01-19T10:38:05.292Z,1.65
2023-01-19T10:40:36.986Z,1.58
2023-01-19T10:43:21.106Z,1.68
2023-01-19T10:45:52.834Z,1.68
2023-01-19T10:48:22.103Z,1.93
2023-01-19T10:50:51.322Z,1.84
2023-01-19T10:53:25.788Z,1.81
2023-01-19T10:56:13.781Z,1.87
2023-01-19T10:58:43.209Z,2.01
2023-01-19T11:01:17.055Z,1.92
2023-01-19T11:03:46.618Z,2.15
2023-01-19T11:06:26.159Z,2.18
2023-01-19T11:09:13.643Z,2.23
2023-01-19T11:11:50.827Z,2.20
2023-01-19T11:14:24.628Z,2.09
2023-01-19T11:16:55.713Z,2.29
2023-01-19T11:19:28.663Z,2.32
2023-01-19T11:22:11.672Z,2.43
2023-01-19T11:24:43.860Z,2.47
2023-01-19T11:27:13.162Z,2.49
2023-01-19T11:29:42.499Z,2.51
2023-01-19T11:32:12.988Z,2.57
2023-01-19T11:34:42.231Z,2.50
2023-01-19T11:37:28.752Z,2.53
2023-01-19T11:40:02.969Z,2.65
2023-01-19T11:42:34.017Z,2.51
2023-01-19T11:45:06.447Z,2.37
2023-01-19T11:47:38.751Z,2.45
2023-01-19T11:50:09.264Z,2.44
2023-01-19T11:52:42.315Z,2.35
2023-01-19T11:55:20.017Z,2.36
2023-01-19T11:57:50.904Z,2.40
2023-01-19T12:00:26.841Z,2.25
2023-01-19T12:02:58.125Z,2.17
2023-01-19T12:05:29.420Z,2.18
2023-01-19T12:08:02.521Z,2.22
2023-01-19T12:10:37.551Z,2.05
2023-01-19T12:13:06.831Z,2.06
2023-01-19T12:15:38.472Z,2.00
2023-01-19T12:18:09.216Z,1.95
2023-01-19T12:20:40.712Z,1.95
2023-01-19T12:23:16.513Z,1.84
2023-01-19T12:25:56.772Z,1.68
2023-01-19T12:28:29.296Z,1.85
2023-01-19T12:30:59.431Z,1.74
2023-01-19T12:33:38.613Z,1.91
2023-01-19T12:36:14.315Z,1.76
2023-01-19T12:38:49.885Z,1.78
2023-01-19T12:41:26.428Z,1.93
2023-01-19T12:44:10.827Z,1.79
2023-01-19T12:46:40.973Z,2.05
2023-01-19T12:49:14.867Z,2.03
2023-01-19T12:51:44.236Z,2.04
2023-01-19T12:54:21.353Z,1.91
2023-01-19T12:56:59.632Z,1.82
2023-01-19T12:59:29.603Z,1.94
2023-01-19T13:02:13.977Z,2.03
2023-01-19T13:04:43.267Z,2.09
2023-01-19T13:07:17.931Z,2.19
2023-01-19T13:09:47.176Z,2.15
2023-01-19T13:12:29.039Z,2.21
2023-01-19T13:15:13.373Z,2.35
2023-01-19T13:17:50.151Z,2.45
2023-01-19T13:20:27.457Z,2.42
2023-01-19T13:23:17.907Z,2.34
2023-01-19T13:25:49.416Z,2.32
2023-01-19T13:28:22.581Z,2.40
2023-01-19T13:30:57.943Z,2.41
2023-01-19T13:33:28.463Z,2.52
2023-01-19T13:35:59.015Z,2.54
2023-01-19T13:38:29.428Z,2.61
2023-01-19T13:40:59.352Z,2.59
2023-01-19T13:43:35.011Z,2.72
2023-01-19T13:46:05.774Z,2.68
2023-01-19T13:48:35.382Z,2.68
2023-01-19T13:51:06.401Z,2.86
2023-01-19T13:53:36.619Z,2.87
2023-01-19T13:56:13.029Z,2.98
2023-01-19T13:58:44.956Z,3.05
2023-01-19T14:01:26.615Z,3.13
2023-01-19T14:03:57.134Z,3.27
2023-01-19T14:06:31.786Z,3.29
2023-01-19T14:09:10.837Z,3.26
2023-01-19T14:11:40.185Z,3.25
2023-01-19T14:14:25.692Z,3.16
2023-01-19T14:16:57.479Z,3.20
2023-01-19T14:19:26.768Z,3.14
2023-01-19T14:22:03.285Z,3.11
2023-01-19T14:24:33.368Z,3.12
2023-01-19T14:27:18.853Z,3.16
2023-01-19T14:29:50.585Z,3.13
2023-01-19T14:32:23.850Z,3.18
2023-01-19T14:34:54.075Z,3.20
2023-01-19T14:37:28.057Z,3.16
2023-01-19T14:40:00.248Z,3.07
2023-01-19T14:42:31.207Z,3.13
2023-01-19T14:45:02.576Z,3.15
2023-01-19T14:47:36.421Z,3.08
2023-01-19T14:50:10.875Z,3.10
2023-01-19T14:52:42.424Z,3.07
2023-01-19T14:55:21.560Z,3.08
2023-01-19T14:57:50.836Z,3.08
2023-01-19T15:00:21.117Z,3.17
2023-01-19T15:02:52.921Z,3.21
2023-01-19T15:05:22.427Z,3.08
2023-01-19T15:07:52.644Z,3.13
2023-01-19T15:10:23.639Z,3.03
2023-01-19T15:12:53.840Z,2.99
2023-01-19T15:15:25.884Z,2.95
2023-01-19T15:17:57.963Z,2.89
2023-01-19T15:20:27.191Z,2.78
2023-01-19T15:22:56.389Z,2.57
2023-01-19T15:25:27.390Z,2.52
2023-01-19T15:28:00.119Z,2.50
2023-01-19T15:30:31.249Z,2.34
2023-01-19T15:33:03.159Z,2.37
2023-01-19T15:35:32.532Z,2.33
2023-01-19T15:38:01.785Z,2.26
2023-01-19T15:40:31.066Z,2.20
2023-01-19T15:43:00.295Z,2.17
2023-01-19T15:45:39.444Z,2.15
2023-01-19T15:48:12.443Z,2.11
2023-01-19T15:50:42.208Z,2.11
2023-01-19T15:53:15.514Z,2.05
2023-01-19T15:55:45.118Z,1.97
2023-01-19T15:58:14.876Z,1.84
2023-01-19T16:00:44.259Z,1.86
2023-01-19T16:03:16.116Z,1.79
2023-01-19T16:05:46.737Z,1.81
2023-01-19T16:08:16.242Z,1.75
2023-01-19T16:10:45.980Z,1.69
2023-01-19T16:13:15.261Z,1.62
2023-01-19T16:15:44.878Z,1.55
2023-01-19T16:18:16.724Z,1.50
2023-01-19T16:20:46.011Z,1.55
2023-01-19T16:23:15.765Z,1.50
2023-01-19T16:25:45.530Z,1.41
2023-01-19T16:28:14.779Z,1.35
2023-01-19T16:30:44.028Z,1.36
2023-01-19T16:33:14.263Z,1.35
2023-01-19T16:35:46.091Z,1.31
2023-01-19T16:38:15.630Z,1.21
2023-01-19T16:40:46.039Z,1.18
2023-01-19T16:43:15.980Z,1.15
2023-01-19T16:45:58.487Z,1.13
2023-01-19T16:48:28.084Z,1.09
2023-01-19T16:51:04.269Z,1.09
2023-01-19T16:53:34.826Z,1.11
2023-01-19T16:56:06.537Z,1.15
2023-01-19T16:58:37.503Z,1.07
2023-01-19T17:01:10.938Z,1.07
2023-01-19T17:03:41.096Z,1.03
2023-01-19T17:06:14.073Z,0.99
2023-01-19T17:08:43.339Z,1.00
2023-01-19T17:11:13.565Z,0.95
2023-01-19T17:13:43.046Z,0.92
2023-01-19T17:16:12.258Z,0.93
2023-01-19T17:18:41.555Z,0.90
2023-01-19T17:21:17.570Z,0.92
2023-01-19T17:23:47.942Z,0.91
2023-01-19T17:26:17.208Z,0.93
2023-01-19T17:28:46.803Z,0.89
2023-01-19T17:31:17.338Z,0.86
2023-01-19T17:33:46.893Z,0.82
2023-01-19T17:36:21.132Z,0.87
2023-01-19T17:38:50.557Z,0.89
2023-01-19T17:41:20.485Z,0.79
2023-01-19T17:43:50.311Z,0.71
2023-01-19T17:46:19.853Z,0.75
2023-01-19T17:48:53.134Z,0.73
2023-01-19T17:51:25.564Z,0.85
2023-01-19T17:53:55.538Z,0.71
2023-01-19T17:56:28.440Z,0.67
2023-01-19T17:58:58.325Z,0.64
2023-01-19T18:01:28.505Z,0.71
2023-01-19T18:03:57.832Z,0.82
2023-01-19T18:06:29.666Z,0.81
2023-01-19T18:08:59.437Z,0.71
2023-01-19T18:11:29.268Z,0.75
2023-01-19T18:13:58.605Z,0.64
2023-01-19T18:16:29.250Z,0.62
2023-01-19T18:18:59.301Z,0.63
2023-01-19T18:21:31.240Z,0.56
2023-01-19T18:24:04.862Z,0.47
2023-01-19T18:26:34.840Z,0.54
2023-01-19T18:29:04.063Z,0.50
2023-01-19T18:31:33.670Z,0.54
2023-01-19T18:34:02.957Z,0.61
2023-01-19T18:36:34.947Z,0.68
2023-01-19T18:39:04.387Z,0.67
2023-01-19T18:41:35.516Z,0.77
2023-01-19T18:44:04.714Z,0.80
2023-01-19T18:46:33.973Z,0.79
2023-01-19T18:49:03.163Z,0.88
2023-01-19T18:51:34.971Z,0.92
2023-01-19T18:54:04.239Z,0.94
2023-01-19T18:56:33.450Z,0.99
2023-01-19T18:59:05.052Z,1.03
2023-01-19T19:01:36.117Z,1.03
2023-01-19T19:04:05.560Z,1.13
2023-01-19T19:06:37.506Z,1.08
2023-01-19T19:09:06.791Z,1.00
2023-01-19T19:11:37.072Z,0.95
2023-01-19T19:14:06.862Z,0.90
2023-01-19T19:16:39.278Z,0.88
2023-01-19T19:19:12.080Z,0.87
2023-01-19T19:21:44.673Z,0.86
2023-01-19T19:24:14.021Z,0.78
2023-01-19T19:26:44.046Z,0.76
2023-01-19T19:29:13.453Z,0.61
2023-01-19T19:31:43.069Z,0.61
2023-01-19T19:34:12.687Z,0.63
2023-01-19T19:36:44.889Z,0.59
2023-01-19T19:39:14.302Z,0.57
2023-01-19T19:41:43.717Z,0.50
2023-01-19T19:44:13.515Z,0.47
2023-01-19T19:46:43.969Z,0.48
2023-01-19T19:49:13.582Z,0.44
2023-01-19T19:51:45.753Z,0.45
2023-01-19T19:54:15.345Z,0.42
2023-01-19T19:56:46.107Z,0.38
2023-01-19T19:59:18.850Z,0.34
2023-01-19T20:01:49.865Z,0.35
2023-01-19T20:04:21.241Z,0.39
2023-01-19T20:06:53.071Z,0.38
2023-01-19T20:09:22.313Z,0.46
2023-01-19T20:11:52.344Z,0.43
2023-01-19T20:14:22.505Z,0.45
2023-01-19T20:16:52.623Z,0.38
2023-01-19T20:19:21.881Z,0.42
2023-01-19T20:21:53.678Z,0.49
2023-01-19T20:24:23.325Z,0.42
2023-01-19T20:26:54.755Z,0.63
2023-01-19T20:29:24.006Z,0.81
2023-01-19T20:31:54.159Z,0.82
2023-01-19T20:34:25.550Z,0.66
2023-01-19T20:36:57.357Z,0.57
2023-01-19T20:39:26.847Z,0.49
2023-01-19T20:41:56.042Z,0.50
2023-01-19T20:44:29.098Z,0.38
2023-01-19T20:46:58.383Z,0.42
2023-01-19T20:49:27.659Z,0.43
2023-01-19T20:51:59.523Z,0.48
2023-01-19T20:54:30.771Z,0.40
2023-01-19T20:57:00.329Z,0.39
2023-01-19T20:59:29.503Z,0.42
2023-01-19T21:01:58.864Z,0.57
2023-01-19T21:04:28.277Z,0.50
2023-01-19T21:07:00.022Z,0.47
2023-01-19T21:09:29.252Z,0.45
2023-01-19T21:11:58.452Z,0.46
2023-01-19T21:14:27.688Z,0.37
2023-01-19T21:16:58.485Z,0.36
2023-01-19T21:19:27.847Z,0.41
2023-01-19T21:21:59.718Z,0.37
2023-01-19T21:24:29.295Z,0.32
2023-01-19T21:26:58.475Z,0.30
2023-01-19T21:29:27.730Z,0.26
2023-01-19T21:31:57.017Z,0.23
2023-01-19T21:34:26.328Z,0.28
2023-01-19T21:36:55.539Z,0.31
2023-01-19T21:39:27.313Z,0.27
2023-01-19T21:41:56.568Z,0.19
2023-01-19T21:44:25.869Z,0.18
2023-01-19T21:46:55.794Z,0.18
2023-01-19T21:49:25.053Z,0.20
2023-01-19T21:51:55.500Z,0.24
2023-01-19T21:54:27.339Z,0.25
2023-01-19T21:56:56.682Z,0.22
2023-01-19T21:59:25.963Z,0.16
2023-01-19T22:01:55.359Z,0.13
2023-01-19T22:04:24.616Z,0.14
2023-01-19T22:06:53.778Z,0.25
2023-01-19T22:09:22.983Z,0.17
2023-01-19T22:11:54.795Z,0.17
2023-01-19T22:14:24.000Z,0.18
2023-01-19T22:16:53.290Z,0.21
2023-01-19T22:19:22.888Z,0.15
2023-01-19T22:21:52.123Z,0.19
2023-01-19T22:24:21.362Z,0.19
2023-01-19T22:26:50.591Z,0.26
2023-01-19T22:29:22.431Z,0.18
2023-01-19T22:31:52.386Z,0.11
2023-01-19T22:34:21.729Z,0.13
2023-01-19T22:36:50.990Z,0.18
2023-01-19T22:39:20.550Z,0.16
2023-01-19T22:41:49.782Z,0.19
2023-01-19T22:44:20.852Z,0.15
2023-01-19T22:46:53.071Z,0.16
2023-01-19T22:49:22.315Z,0.14
2023-01-19T22:51:53.907Z,0.11
2023-01-19T22:54:23.276Z,0.10
2023-01-19T22:56:52.555Z,0.12
2023-01-19T22:59:21.744Z,0.12
2023-01-19T23:01:53.791Z,0.03
2023-01-19T23:04:23.160Z,0.08
2023-01-19T23:06:53.648Z,0.05
2023-01-19T23:09:22.990Z,-0.01
2023-01-19T23:11:53.024Z,-0.10
2023-01-19T23:14:23.596Z,-0.01
2023-01-19T23:16:55.401Z,0.02
2023-01-19T23:19:24.608Z,-0.03
2023-01-19T23:21:54.533Z,0.03
2023-01-19T23:24:23.924Z,-0.04
2023-01-19T23:26:53.353Z,-0.05
2023-01-19T23:29:23.329Z,-0.11
2023-01-19T23:31:56.329Z,-0.06
2023-01-19T23:34:25.537Z,0.02
2023-01-19T23:36:54.807Z,-0.01
2023-01-19T23:39:24.786Z,-0.01
2023-01-19T23:41:54.035Z,-0.03
2023-01-19T23:44:23.235Z,0.00
2023-01-19T23:46:55.050Z,-0.06
2023-01-19T23:49:24.263Z,-0.07
2023-01-19T23:51:53.492Z,-0.16
2023-01-19T23:54:22.794Z,-0.22
2023-01-19T23:56:52.092Z,-0.20
2023-01-19T23:59:21.269Z,-0.23
